createdAt,value
2023-04-27T00:00:05.079Z,99450.38
2023-04-27T00:01:15.178Z,99446.56
2023-04-27T00:02:16.933Z,99445.72
2023-04-27T00:03:18.900Z,99443.19
2023-04-27T00:04:20.996Z,99447.75
2023-04-27T00:05:23.043Z,99446.19
2023-04-27T00:06:24.690Z,99443.88
2023-04-27T00:07:26.271Z,99447.31
2023-04-27T00:08:28.064Z,99449.38
2023-04-27T00:09:29.692Z,99445.44
2023-04-27T00:10:31.488Z,99446.44
2023-04-27T00:11:33.247Z,99450.09
2023-04-27T00:12:35.165Z,99452.13
2023-04-27T00:13:36.758Z,99447.97
2023-04-27T00:14:38.360Z,99446.28
2023-04-27T00:15:39.971Z,99452.25
2023-04-27T00:16:41.654Z,99453.91
2023-04-27T00:17:43.322Z,99454.19
2023-04-27T00:18:44.980Z,99449.63
2023-04-27T00:19:46.918Z,99452.25
2023-04-27T00:20:48.496Z,99449.53
2023-04-27T00:21:50.085Z,99448.97
2023-04-27T00:22:51.793Z,99449.06
2023-04-27T00:23:54.418Z,99454.84
2023-04-27T00:24:56.022Z,99450.00
2023-04-27T00:25:57.596Z,99452.88
2023-04-27T00:26:59.181Z,99448.59
2023-04-27T00:28:00.778Z,99449.44
2023-04-27T00:29:02.364Z,99447.09
2023-04-27T00:30:04.947Z,99459.59
2023-04-27T00:31:07.750Z,99456.88
2023-04-27T00:32:12.376Z,99460.41
2023-04-27T00:33:14.135Z,99447.50
2023-04-27T00:34:15.754Z,99453.72
2023-04-27T00:35:17.508Z,99446.81
2023-04-27T00:36:19.083Z,99461.28
2023-04-27T00:37:22.920Z,99453.59
2023-04-27T00:38:24.579Z,99451.78
2023-04-27T00:39:26.196Z,99449.25
2023-04-27T00:40:27.794Z,99450.91
2023-04-27T00:41:29.673Z,99450.66
2023-04-27T00:42:31.289Z,99453.34
2023-04-27T00:43:40.970Z,99449.91
2023-04-27T00:44:43.135Z,99454.38
2023-04-27T00:45:44.711Z,99452.72
2023-04-27T00:46:47.441Z,99452.78
2023-04-27T00:47:49.733Z,99453.59
2023-04-27T00:48:52.785Z,99454.91
2023-04-27T00:49:54.460Z,99448.03
2023-04-27T00:50:56.049Z,99450.63
2023-04-27T00:51:57.873Z,99453.06
2023-04-27T00:52:59.582Z,99455.19
2023-04-27T00:54:01.630Z,99453.34
2023-04-27T00:55:05.979Z,99456.06
2023-04-27T00:56:07.866Z,99449.31
2023-04-27T00:57:09.599Z,99450.19
2023-04-27T00:58:11.167Z,99449.25
2023-04-27T00:59:13.085Z,99450.72
2023-04-27T01:00:15.061Z,99453.34
2023-04-27T01:01:16.815Z,99450.09
2023-04-27T01:02:18.729Z,99447.38
2023-04-27T01:03:21.099Z,99445.63
2023-04-27T01:04:23.020Z,99447.66
2023-04-27T01:05:26.367Z,99450.09
2023-04-27T01:06:28.214Z,99450.84
2023-04-27T01:07:29.927Z,99449.16
2023-04-27T01:08:33.053Z,99451.78
2023-04-27T01:09:37.200Z,99450.38
2023-04-27T01:10:38.862Z,99453.25
2023-04-27T01:11:40.687Z,99449.13
2023-04-27T01:12:42.379Z,99457.72
2023-04-27T01:13:44.662Z,99455.09
2023-04-27T01:14:46.328Z,99458.47
2023-04-27T01:15:48.035Z,99454.06
2023-04-27T01:16:49.689Z,99454.25
2023-04-27T01:17:58.490Z,99455.09
2023-04-27T01:19:00.216Z,99451.38
2023-04-27T01:20:02.453Z,99464.97
2023-04-27T01:21:04.249Z,99460.69
2023-04-27T01:22:06.777Z,99459.47
2023-04-27T01:23:08.350Z,99456.59
2023-04-27T01:24:10.918Z,99459.16
2023-04-27T01:25:12.491Z,99462.53
2023-04-27T01:26:14.109Z,99462.34
2023-04-27T01:27:16.443Z,99461.88
2023-04-27T01:28:18.456Z,99457.31
2023-04-27T01:29:20.473Z,99454.91
2023-04-27T01:30:22.119Z,99453.22
2023-04-27T01:31:23.754Z,99453.88
2023-04-27T01:32:25.540Z,99456.97
2023-04-27T01:33:27.132Z,99455.22
2023-04-27T01:34:28.712Z,99462.00
2023-04-27T01:35:30.295Z,99459.22
2023-04-27T01:36:34.656Z,99457.47
2023-04-27T01:37:36.442Z,99454.94
2023-04-27T01:38:38.045Z,99455.88
2023-04-27T01:39:39.712Z,99454.47
2023-04-27T01:40:43.164Z,99461.44
2023-04-27T01:41:44.791Z,99457.16
2023-04-27T01:42:46.516Z,99458.81
2023-04-27T01:43:48.130Z,99456.88
2023-04-27T01:44:49.791Z,99452.81
2023-04-27T01:45:51.357Z,99457.09
2023-04-27T01:46:52.979Z,99455.88
2023-04-27T01:47:54.622Z,99459.41
2023-04-27T01:48:56.286Z,99456.69
2023-04-27T01:49:58.092Z,99460.91
2023-04-27T01:50:59.689Z,99457.97
2023-04-27T01:52:02.020Z,99468.19
2023-04-27T01:53:03.652Z,99467.25
2023-04-27T01:54:05.312Z,99469.94
2023-04-27T01:55:07.493Z,99466.34
2023-04-27T01:56:09.166Z,99458.78
2023-04-27T01:57:10.752Z,99463.66
2023-04-27T01:58:12.352Z,99464.41
2023-04-27T01:59:15.694Z,99464.06
2023-04-27T02:00:17.811Z,99463.31
2023-04-27T02:01:27.398Z,99465.66
2023-04-27T02:02:29.117Z,99469.28
2023-04-27T02:03:30.987Z,99464.84
2023-04-27T02:04:32.901Z,99468.38
2023-04-27T02:05:34.623Z,99468.72
2023-04-27T02:06:36.435Z,99464.50
2023-04-27T02:07:38.073Z,99462.84
2023-04-27T02:08:39.747Z,99470.34
2023-04-27T02:09:43.344Z,99460.78
2023-04-27T02:10:47.231Z,99462.09
2023-04-27T02:11:48.853Z,99468.06
2023-04-27T02:12:50.507Z,99463.03
2023-04-27T02:13:52.090Z,99465.06
2023-04-27T02:14:54.003Z,99459.84
2023-04-27T02:15:55.627Z,99463.38
2023-04-27T02:16:57.232Z,99467.75
2023-04-27T02:17:58.903Z,99468.59
2023-04-27T02:19:00.767Z,99466.00
2023-04-27T02:20:02.400Z,99474.16
2023-04-27T02:21:09.208Z,99462.88
2023-04-27T02:22:11.535Z,99469.13
2023-04-27T02:23:13.255Z,99470.88
2023-04-27T02:24:17.166Z,99462.88
2023-04-27T02:25:20.324Z,99466.16
2023-04-27T02:26:22.998Z,99470.69
2023-04-27T02:27:24.665Z,99462.06
2023-04-27T02:28:26.738Z,99468.09
2023-04-27T02:29:31.584Z,99467.94
2023-04-27T02:30:33.623Z,99468.75
2023-04-27T02:31:35.374Z,99469.50
2023-04-27T02:32:37.485Z,99468.25
2023-04-27T02:33:39.774Z,99470.34
2023-04-27T02:34:42.178Z,99465.69
2023-04-27T02:35:43.789Z,99472.25
2023-04-27T02:36:45.393Z,99476.22
2023-04-27T02:37:47.056Z,99466.25
2023-04-27T02:38:50.120Z,99471.63
2023-04-27T02:39:51.720Z,99466.91
2023-04-27T02:40:54.394Z,99462.28
2023-04-27T02:41:56.107Z,99470.91
2023-04-27T02:42:57.745Z,99472.78
2023-04-27T02:43:59.312Z,99467.75
2023-04-27T02:45:01.115Z,99467.25
2023-04-27T02:46:03.550Z,99470.56
2023-04-27T02:47:05.988Z,99469.63
2023-04-27T02:48:07.668Z,99465.91
2023-04-27T02:49:09.317Z,99469.38
2023-04-27T02:50:10.987Z,99466.84
2023-04-27T02:51:12.814Z,99468.53
2023-04-27T02:52:14.411Z,99467.53
2023-04-27T02:53:15.995Z,99476.25
2023-04-27T02:54:17.532Z,99464.34
2023-04-27T02:55:19.356Z,99473.72
2023-04-27T02:56:21.369Z,99477.25
2023-04-27T02:57:25.302Z,99472.81
2023-04-27T02:58:27.094Z,99470.88
2023-04-27T02:59:28.682Z,99469.13
2023-04-27T03:00:30.616Z,99474.50
2023-04-27T03:01:32.462Z,99472.72
2023-04-27T03:02:34.254Z,99473.47
2023-04-27T03:03:36.142Z,99471.81
2023-04-27T03:04:37.978Z,99471.72
2023-04-27T03:05:39.572Z,99478.00
2023-04-27T03:06:41.310Z,99472.66
2023-04-27T03:07:43.071Z,99471.63
2023-04-27T03:08:44.662Z,99469.88
2023-04-27T03:09:46.242Z,99476.75
2023-04-27T03:10:47.830Z,99469.59
2023-04-27T03:11:49.444Z,99470.28
2023-04-27T03:12:51.091Z,99474.56
2023-04-27T03:13:52.939Z,99471.69
2023-04-27T03:14:54.536Z,99474.19
2023-04-27T03:15:56.186Z,99474.44
2023-04-27T03:16:57.811Z,99476.97
2023-04-27T03:17:59.924Z,99480.50
2023-04-27T03:19:01.599Z,99479.66
2023-04-27T03:20:06.037Z,99479.59
2023-04-27T03:21:09.031Z,99485.72
2023-04-27T03:22:10.657Z,99485.47
2023-04-27T03:23:12.246Z,99480.41
2023-04-27T03:24:13.869Z,99475.88
2023-04-27T03:25:15.463Z,99489.66
2023-04-27T03:26:17.112Z,99485.47
2023-04-27T03:27:18.762Z,99487.03
2023-04-27T03:28:20.371Z,99492.72
2023-04-27T03:29:22.017Z,99490.91
2023-04-27T03:30:23.678Z,99486.78
2023-04-27T03:31:25.371Z,99486.78
2023-04-27T03:32:27.024Z,99494.34
2023-04-27T03:33:29.036Z,99486.50
2023-04-27T03:34:30.936Z,99495.00
2023-04-27T03:35:32.527Z,99492.31
2023-04-27T03:36:34.129Z,99496.50
2023-04-27T03:37:36.381Z,99496.50
2023-04-27T03:38:38.091Z,99493.81
2023-04-27T03:39:40.005Z,99501.63
2023-04-27T03:40:43.105Z,99494.00
2023-04-27T03:41:44.721Z,99497.28
2023-04-27T03:42:46.910Z,99503.03
2023-04-27T03:43:48.993Z,99504.63
2023-04-27T03:44:52.038Z,99504.53
2023-04-27T03:45:53.729Z,99505.56
2023-04-27T03:46:55.293Z,99502.84
2023-04-27T03:47:57.040Z,99509.94
2023-04-27T03:48:58.762Z,99507.41
2023-04-27T03:50:00.434Z,99506.47
2023-04-27T03:51:02.428Z,99507.41
2023-04-27T03:52:04.330Z,99510.88
2023-04-27T03:53:05.976Z,99509.94
2023-04-27T03:54:07.699Z,99510.88
2023-04-27T03:55:09.611Z,99510.69
2023-04-27T03:56:11.204Z,99512.34
2023-04-27T03:57:12.877Z,99510.59
2023-04-27T03:58:14.755Z,99523.44
2023-04-27T03:59:35.267Z,99518.97
2023-04-27T04:00:39.571Z,99514.50
2023-04-27T04:01:41.313Z,99509.97
2023-04-27T04:02:43.033Z,99516.09
2023-04-27T04:03:45.559Z,99518.72
2023-04-27T04:04:47.449Z,99517.78
2023-04-27T04:05:49.427Z,99522.66
2023-04-27T04:06:51.233Z,99516.41
2023-04-27T04:07:52.776Z,99520.69
2023-04-27T04:08:54.640Z,99517.25
2023-04-27T04:09:56.619Z,99515.47
2023-04-27T04:10:58.264Z,99520.53
2023-04-27T04:12:00.157Z,99516.06
2023-04-27T04:13:01.733Z,99524.81
2023-04-27T04:14:03.401Z,99519.78
2023-04-27T04:15:05.510Z,99516.41
2023-04-27T04:16:09.454Z,99520.78
2023-04-27T04:17:11.160Z,99522.38
2023-04-27T04:18:15.190Z,99520.69
2023-04-27T04:19:17.164Z,99530.22
2023-04-27T04:20:19.043Z,99529.91
2023-04-27T04:21:20.673Z,99522.00
2023-04-27T04:22:22.989Z,99531.31
2023-04-27T04:23:24.790Z,99525.28
2023-04-27T04:24:29.902Z,99530.56
2023-04-27T04:25:36.873Z,99528.63
2023-04-27T04:26:38.572Z,99529.47
2023-04-27T04:27:43.133Z,99532.25
2023-04-27T04:28:47.479Z,99528.16
2023-04-27T04:30:10.852Z,99538.31
2023-04-27T04:31:18.274Z,99531.44
2023-04-27T04:32:20.017Z,99533.78
2023-04-27T04:33:27.880Z,99536.19
2023-04-27T04:34:30.781Z,99537.88
2023-04-27T04:35:32.823Z,99537.78
2023-04-27T04:36:34.542Z,99534.91
2023-04-27T04:37:36.163Z,99539.00
2023-04-27T04:38:38.090Z,99540.59
2023-04-27T04:39:39.993Z,99539.66
2023-04-27T04:40:44.521Z,99542.91
2023-04-27T04:41:47.616Z,99539.66
2023-04-27T04:42:49.262Z,99544.09
2023-04-27T04:43:50.992Z,99541.69
2023-04-27T04:44:52.883Z,99539.81
2023-04-27T04:45:54.521Z,99539.56
2023-04-27T04:46:56.201Z,99543.47
2023-04-27T04:48:01.035Z,99543.28
2023-04-27T04:49:03.070Z,99539.56
2023-04-27T04:50:05.037Z,99547.84
2023-04-27T04:51:06.763Z,99538.25
2023-04-27T04:52:09.209Z,99540.75
2023-04-27T04:53:12.938Z,99547.50
2023-04-27T04:54:14.658Z,99543.88
2023-04-27T04:55:16.300Z,99554.78
2023-04-27T04:56:17.895Z,99552.91
2023-04-27T04:57:19.550Z,99554.47
2023-04-27T04:58:21.348Z,99552.78
2023-04-27T04:59:22.993Z,99551.97
2023-04-27T05:00:24.636Z,99555.13
2023-04-27T05:01:26.259Z,99545.34
2023-04-27T05:02:27.973Z,99554.75
2023-04-27T05:03:29.794Z,99547.69
2023-04-27T05:04:31.550Z,99554.38
2023-04-27T05:05:33.146Z,99553.06
2023-04-27T05:06:34.701Z,99550.19
2023-04-27T05:07:36.384Z,99560.25
2023-04-27T05:08:37.987Z,99558.50
2023-04-27T05:09:39.663Z,99557.38
2023-04-27T05:10:41.236Z,99557.44
2023-04-27T05:11:42.875Z,99560.84
2023-04-27T05:12:44.478Z,99558.03
2023-04-27T05:13:46.080Z,99561.56
2023-04-27T05:14:47.676Z,99561.56
2023-04-27T05:15:49.253Z,99559.78
2023-04-27T05:16:50.853Z,99571.53
2023-04-27T05:17:52.439Z,99568.63
2023-04-27T05:18:53.973Z,99571.78
2023-04-27T05:19:55.609Z,99574.97
2023-04-27T05:20:57.264Z,99572.06
2023-04-27T05:22:01.619Z,99559.63
2023-04-27T05:23:03.413Z,99566.53
2023-04-27T05:24:05.184Z,99565.41
2023-04-27T05:25:07.118Z,99569.50
2023-04-27T05:26:16.012Z,99573.56
2023-04-27T05:27:17.589Z,99573.56
2023-04-27T05:28:19.165Z,99571.72
2023-04-27T05:29:21.811Z,99576.97
2023-04-27T05:30:23.420Z,99569.66
2023-04-27T05:31:25.083Z,99574.66
2023-04-27T05:32:26.714Z,99577.94
2023-04-27T05:33:28.349Z,99569.88
2023-04-27T05:34:29.941Z,99581.72
2023-04-27T05:35:32.391Z,99575.25
2023-04-27T05:36:33.990Z,99578.41
2023-04-27T05:37:35.630Z,99580.81
2023-04-27T05:38:37.247Z,99582.28
2023-04-27T05:39:39.083Z,99585.47
2023-04-27T05:40:40.636Z,99579.00
2023-04-27T05:41:42.264Z,99581.59
2023-04-27T05:42:46.340Z,99585.78
2023-04-27T05:43:47.880Z,99577.63
2023-04-27T05:44:49.484Z,99589.47
2023-04-27T05:45:51.257Z,99581.41
2023-04-27T05:46:52.834Z,99587.28
2023-04-27T05:47:54.483Z,99586.31
2023-04-27T05:48:56.184Z,99586.63
2023-04-27T05:49:57.799Z,99592.94
2023-04-27T05:51:03.427Z,99591.88
2023-04-27T05:52:04.996Z,99588.13
2023-04-27T05:53:06.616Z,99595.34
2023-04-27T05:54:08.538Z,99588.72
2023-04-27T05:55:10.131Z,99594.06
2023-04-27T05:56:11.740Z,99595.84
2023-04-27T05:57:13.330Z,99591.00
2023-04-27T05:58:15.142Z,99593.44
2023-04-27T05:59:17.014Z,99596.50
2023-04-27T06:00:18.753Z,99590.75
2023-04-27T06:01:20.333Z,99597.84
2023-04-27T06:02:22.764Z,99599.13
2023-04-27T06:03:24.989Z,99597.66
2023-04-27T06:04:27.083Z,99599.53
2023-04-27T06:05:28.988Z,99600.19
2023-04-27T06:06:34.311Z,99594.84
2023-04-27T06:07:35.872Z,99596.75
2023-04-27T06:08:37.666Z,99604.25
2023-04-27T06:09:39.488Z,99597.75
2023-04-27T06:10:41.080Z,99600.19
2023-04-27T06:11:42.689Z,99605.00
2023-04-27T06:12:46.305Z,99603.63
2023-04-27T06:13:47.981Z,99605.31
2023-04-27T06:14:49.536Z,99605.41
2023-04-27T06:15:51.166Z,99599.44
2023-04-27T06:16:55.414Z,99601.41
2023-04-27T06:17:57.038Z,99603.50
2023-04-27T06:18:58.692Z,99605.25
2023-04-27T06:20:00.244Z,99602.53
2023-04-27T06:21:02.333Z,99611.00
2023-04-27T06:22:03.986Z,99604.09
2023-04-27T06:23:05.650Z,99605.25
2023-04-27T06:24:07.437Z,99599.69
2023-04-27T06:25:09.208Z,99607.72
2023-04-27T06:26:10.750Z,99606.91
2023-04-27T06:27:12.331Z,99608.69
2023-04-27T06:28:13.910Z,99601.44
2023-04-27T06:29:15.812Z,99606.94
2023-04-27T06:30:17.502Z,99612.91
2023-04-27T06:31:19.103Z,99604.16
2023-04-27T06:32:20.748Z,99611.06
2023-04-27T06:33:22.462Z,99604.16
2023-04-27T06:34:24.030Z,99604.22
2023-04-27T06:35:25.718Z,99605.84
2023-04-27T06:36:27.281Z,99603.84
2023-04-27T06:37:28.835Z,99609.69
2023-04-27T06:38:30.437Z,99607.78
2023-04-27T06:39:32.024Z,99606.16
2023-04-27T06:40:33.600Z,99612.25
2023-04-27T06:41:35.453Z,99614.41
2023-04-27T06:42:37.576Z,99616.25
2023-04-27T06:43:39.229Z,99614.47
2023-04-27T06:44:41.320Z,99618.16
2023-04-27T06:45:43.030Z,99624.53
2023-04-27T06:46:44.646Z,99616.41
2023-04-27T06:47:46.310Z,99618.53
2023-04-27T06:48:47.906Z,99615.47
2023-04-27T06:49:49.905Z,99617.59
2023-04-27T06:50:51.654Z,99618.56
2023-04-27T06:51:53.285Z,99621.88
2023-04-27T06:52:54.828Z,99615.44
2023-04-27T06:53:56.390Z,99617.94
2023-04-27T06:54:57.954Z,99613.75
2023-04-27T06:56:00.024Z,99612.41
2023-04-27T06:57:01.607Z,99610.63
2023-04-27T06:58:03.466Z,99616.28
2023-04-27T06:59:05.168Z,99612.72
2023-04-27T07:00:07.398Z,99612.56
2023-04-27T07:01:09.083Z,99613.88
2023-04-27T07:02:10.687Z,99611.84
2023-04-27T07:03:12.406Z,99608.66
2023-04-27T07:04:14.184Z,99603.09
2023-04-27T07:05:15.801Z,99604.97
2023-04-27T07:06:17.347Z,99608.25
2023-04-27T07:07:18.886Z,99605.56
2023-04-27T07:08:20.479Z,99605.56
2023-04-27T07:10:27.972Z,99608.16
2023-04-27T07:11:29.881Z,99605.03
2023-04-27T07:12:31.516Z,99605.84
2023-04-27T07:13:33.050Z,99608.00
2023-04-27T07:14:34.699Z,99598.31
2023-04-27T07:15:36.302Z,99605.19
2023-04-27T07:16:38.045Z,99602.34
2023-04-27T07:17:39.713Z,99605.72
2023-04-27T07:18:43.228Z,99601.59
2023-04-27T07:19:45.196Z,99600.38
2023-04-27T07:20:46.795Z,99601.59
2023-04-27T07:21:48.356Z,99603.97
2023-04-27T07:22:49.915Z,99596.63
2023-04-27T07:23:52.191Z,99598.59
2023-04-27T07:24:55.322Z,99601.56
2023-04-27T07:25:57.714Z,99599.75
2023-04-27T07:26:59.309Z,99593.97
2023-04-27T07:28:00.885Z,99594.56
2023-04-27T07:29:11.096Z,99599.28
2023-04-27T07:30:16.373Z,99592.63
2023-04-27T07:31:18.003Z,99599.72
2023-04-27T07:32:19.653Z,99597.09
2023-04-27T07:33:21.280Z,99589.50
2023-04-27T07:34:23.077Z,99594.22
2023-04-27T07:35:24.717Z,99596.44
2023-04-27T07:36:26.354Z,99599.47
2023-04-27T07:37:27.922Z,99599.63
2023-04-27T07:38:29.605Z,99607.28
2023-04-27T07:39:31.198Z,99592.25
2023-04-27T07:40:32.882Z,99597.97
2023-04-27T07:41:34.490Z,99596.16
2023-04-27T07:42:37.581Z,99596.16
2023-04-27T07:43:39.145Z,99593.66
2023-04-27T07:44:40.898Z,99592.28
2023-04-27T07:45:42.625Z,99600.31
2023-04-27T07:46:44.392Z,99597.69
2023-04-27T07:47:45.986Z,99593.78
2023-04-27T07:48:47.633Z,99588.38
2023-04-27T07:49:49.307Z,99609.50
2023-04-27T07:50:51.261Z,99596.72
2023-04-27T07:51:52.878Z,99595.19
2023-04-27T07:52:54.458Z,99595.88
2023-04-27T07:53:56.388Z,99599.47
2023-04-27T07:54:57.990Z,99592.25
2023-04-27T07:55:59.587Z,99598.91
2023-04-27T07:57:01.185Z,99591.13
2023-04-27T07:58:02.848Z,99598.63
2023-04-27T07:59:04.480Z,99588.06
2023-04-27T08:00:06.749Z,99591.38
2023-04-27T08:01:14.273Z,99590.69
2023-04-27T08:02:19.528Z,99595.56
2023-04-27T08:03:22.107Z,99598.75
2023-04-27T08:04:24.311Z,99595.28
2023-04-27T08:05:26.551Z,99591.41
2023-04-27T08:06:28.751Z,99596.81
2023-04-27T08:07:31.136Z,99594.63
2023-04-27T08:08:32.709Z,99592.81
2023-04-27T08:09:34.249Z,99591.44
2023-04-27T08:10:35.955Z,99598.09
2023-04-27T08:11:37.508Z,99588.63
2023-04-27T08:12:39.072Z,99588.91
2023-04-27T08:13:40.664Z,99594.91
2023-04-27T08:14:42.214Z,99602.28
2023-04-27T08:15:43.745Z,99589.47
2023-04-27T08:16:45.531Z,99592.94
2023-04-27T08:17:47.208Z,99597.53
2023-04-27T08:18:51.670Z,99594.63
2023-04-27T08:19:53.276Z,99597.25
2023-04-27T08:20:55.515Z,99595.03
2023-04-27T08:21:57.204Z,99594.34
2023-04-27T08:22:58.790Z,99595.75
2023-04-27T08:24:00.333Z,99596.00
2023-04-27T08:25:01.881Z,99604.31
2023-04-27T08:26:03.543Z,99597.38
2023-04-27T08:27:08.446Z,99600.19
2023-04-27T08:28:10.020Z,99599.75
2023-04-27T08:29:23.583Z,99595.31
2023-04-27T08:30:28.344Z,99599.22
2023-04-27T08:31:29.902Z,99601.84
2023-04-27T08:32:31.585Z,99598.38
2023-04-27T08:33:33.248Z,99598.13
2023-04-27T08:34:35.125Z,99598.53
2023-04-27T08:35:36.727Z,99600.06
2023-04-27T08:36:38.280Z,99601.44
2023-04-27T08:37:39.871Z,99597.28
2023-04-27T08:38:41.419Z,99589.59
2023-04-27T08:39:43.137Z,99596.44
2023-04-27T08:40:45.145Z,99597.00
2023-04-27T08:41:46.714Z,99594.75
2023-04-27T08:42:59.017Z,99596.69
2023-04-27T08:44:00.645Z,99599.88
2023-04-27T08:45:02.272Z,99599.19
2023-04-27T08:46:03.842Z,99597.38
2023-04-27T08:47:05.410Z,99603.22
2023-04-27T08:48:07.001Z,99601.59
2023-04-27T08:49:08.580Z,99599.63
2023-04-27T08:50:11.890Z,99601.84
2023-04-27T08:51:15.211Z,99604.78
2023-04-27T08:52:17.308Z,99607.69
2023-04-27T08:53:22.829Z,99611.03
2023-04-27T08:54:24.398Z,99608.50
2023-04-27T08:55:25.949Z,99610.16
2023-04-27T08:56:30.415Z,99604.03
2023-04-27T08:57:32.044Z,99614.47
2023-04-27T08:58:37.368Z,99607.53
2023-04-27T08:59:42.468Z,99607.25
2023-04-27T09:00:44.721Z,99608.75
2023-04-27T09:01:47.669Z,99614.97
2023-04-27T09:02:49.502Z,99607.31
2023-04-27T09:03:58.640Z,99614.47
2023-04-27T09:05:00.670Z,99612.41
2023-04-27T09:06:06.443Z,99615.75
2023-04-27T09:07:15.859Z,99618.81
2023-04-27T09:08:17.448Z,99615.63
2023-04-27T09:09:25.208Z,99611.34
2023-04-27T09:10:26.938Z,99612.94
2023-04-27T09:11:33.429Z,99608.97
2023-04-27T09:12:35.001Z,99606.03
2023-04-27T09:13:41.109Z,99614.03
2023-04-27T09:14:43.267Z,99614.69
2023-04-27T09:15:49.810Z,99617.59
2023-04-27T09:16:58.476Z,99611.78
2023-04-27T09:18:00.155Z,99607.50
2023-04-27T09:19:01.808Z,99608.78
2023-04-27T09:20:08.487Z,99606.84
2023-04-27T09:21:10.428Z,99613.81
2023-04-27T09:22:11.978Z,99613.34
2023-04-27T09:23:33.082Z,99609.81
2023-04-27T09:24:35.093Z,99611.44
2023-04-27T09:25:36.654Z,99613.97
2023-04-27T09:26:39.273Z,99609.00
2023-04-27T09:27:44.099Z,99607.97
2023-04-27T09:28:48.839Z,99611.56
2023-04-27T09:29:50.444Z,99613.50
2023-04-27T09:30:57.010Z,99616.31
2023-04-27T09:31:58.712Z,99616.06
2023-04-27T09:33:01.597Z,99615.00
2023-04-27T09:34:03.550Z,99607.81
2023-04-27T09:35:15.448Z,99605.88
2023-04-27T09:36:17.042Z,99604.91
2023-04-27T09:37:19.254Z,99605.19
2023-04-27T09:38:22.140Z,99597.56
2023-04-27T09:39:23.707Z,99601.16
2023-04-27T09:40:27.662Z,99602.69
2023-04-27T09:41:29.516Z,99607.00
2023-04-27T09:42:31.799Z,99609.78
2023-04-27T09:43:33.549Z,99608.53
2023-04-27T09:44:35.252Z,99608.81
2023-04-27T09:45:37.845Z,99615.03
2023-04-27T09:46:40.628Z,99613.69
2023-04-27T09:47:43.623Z,99613.41
2023-04-27T09:48:45.193Z,99604.50
2023-04-27T09:49:47.091Z,99602.81
2023-04-27T09:50:50.217Z,99614.66
2023-04-27T09:51:51.799Z,99607.81
2023-04-27T09:52:53.336Z,99607.16
2023-04-27T09:54:00.775Z,99618.41
2023-04-27T09:55:04.840Z,99612.81
2023-04-27T09:56:16.533Z,99615.81
2023-04-27T09:57:28.149Z,99616.06
2023-04-27T09:58:44.462Z,99610.38
2023-04-27T10:00:01.712Z,99615.06
2023-04-27T10:01:28.577Z,99616.22
2023-04-27T10:02:52.536Z,99605.31
2023-04-27T10:04:01.174Z,99606.69
2023-04-27T10:05:20.054Z,99607.28
2023-04-27T10:06:40.240Z,99609.44
2023-04-27T10:07:42.276Z,99615.41
2023-04-27T10:08:43.868Z,99604.88
2023-04-27T10:09:47.453Z,99610.41
2023-04-27T10:10:53.415Z,99609.66
2023-04-27T10:11:55.348Z,99604.09
2023-04-27T10:13:00.601Z,99605.53
2023-04-27T10:14:06.800Z,99604.78
2023-04-27T10:15:16.185Z,99602.03
2023-04-27T10:16:20.427Z,99605.81
2023-04-27T10:17:33.328Z,99602.06
2023-04-27T10:18:34.952Z,99597.97
2023-04-27T10:19:37.244Z,99603.66
2023-04-27T10:20:38.948Z,99609.09
2023-04-27T10:21:57.947Z,99607.50
2023-04-27T10:22:59.934Z,99601.97
2023-04-27T10:24:08.211Z,99604.78
2023-04-27T10:25:39.247Z,99601.78
2023-04-27T10:26:46.905Z,99601.50
2023-04-27T10:27:50.329Z,99603.75
2023-04-27T10:28:58.607Z,99602.25
2023-04-27T10:30:09.877Z,99596.84
2023-04-27T10:31:11.563Z,99600.34
2023-04-27T10:32:18.711Z,99596.56
2023-04-27T10:33:22.936Z,99590.03
2023-04-27T10:34:27.774Z,99592.13
2023-04-27T10:35:40.624Z,99587.69
2023-04-27T10:36:42.244Z,99590.59
2023-04-27T10:37:44.330Z,99594.50
2023-04-27T10:38:45.869Z,99590.16
2023-04-27T10:39:49.138Z,99592.25
2023-04-27T10:41:00.487Z,99597.38
2023-04-27T10:42:02.135Z,99594.75
2023-04-27T10:43:17.712Z,99595.56
2023-04-27T10:44:26.303Z,99596.81
2023-04-27T10:45:31.213Z,99590.13
2023-04-27T10:46:35.287Z,99600.97
2023-04-27T10:47:45.909Z,99598.03
2023-04-27T10:48:47.812Z,99592.97
2023-04-27T10:49:53.259Z,99601.25
2023-04-27T10:50:56.759Z,99604.84
2023-04-27T10:51:59.358Z,99599.69
2023-04-27T10:53:03.102Z,99599.53
2023-04-27T10:54:05.154Z,99596.53
2023-04-27T10:55:16.324Z,99599.88
2023-04-27T10:56:18.890Z,99601.00
2023-04-27T10:57:20.485Z,99597.94
2023-04-27T10:58:29.860Z,99597.63
2023-04-27T10:59:48.679Z,99600.28
2023-04-27T11:00:50.261Z,99601.53
2023-04-27T11:01:51.818Z,99595.72
2023-04-27T11:02:54.824Z,99593.47
2023-04-27T11:03:57.472Z,99599.97
2023-04-27T11:04:59.051Z,99597.78
2023-04-27T11:06:05.805Z,99594.81
2023-04-27T11:07:09.614Z,99605.38
2023-04-27T11:08:13.833Z,99593.31
2023-04-27T11:09:26.337Z,99596.31
2023-04-27T11:10:27.884Z,99595.88
2023-04-27T11:11:29.506Z,99595.56
2023-04-27T11:12:32.116Z,99586.03
2023-04-27T11:13:33.851Z,99584.22
2023-04-27T11:14:35.856Z,99583.59
2023-04-27T11:15:53.244Z,99588.44
2023-04-27T11:16:54.882Z,99589.97
2023-04-27T11:18:05.151Z,99589.75
2023-04-27T11:19:06.947Z,99591.03
2023-04-27T11:20:09.282Z,99597.47
2023-04-27T11:21:15.780Z,99594.25
2023-04-27T11:22:17.359Z,99591.53
2023-04-27T11:23:30.686Z,99590.03
2023-04-27T11:24:33.424Z,99597.28
2023-04-27T11:25:35.382Z,99599.19
2023-04-27T11:26:37.181Z,99590.88
2023-04-27T11:27:40.261Z,99597.63
2023-04-27T11:28:56.749Z,99588.94
2023-04-27T11:29:58.317Z,99583.28
2023-04-27T11:31:00.212Z,99589.63
2023-04-27T11:32:01.972Z,99584.63
2023-04-27T11:33:08.490Z,99580.97
2023-04-27T11:34:16.373Z,99593.19
2023-04-27T11:35:18.233Z,99596.94
2023-04-27T11:36:21.414Z,99589.44
2023-04-27T11:37:27.346Z,99597.09
2023-04-27T11:38:35.018Z,99594.19
2023-04-27T11:39:38.565Z,99595.03
2023-04-27T11:40:40.146Z,99598.53
2023-04-27T11:41:41.698Z,99592.75
2023-04-27T11:42:43.432Z,99595.84
2023-04-27T11:43:45.030Z,99596.66
2023-04-27T11:44:57.108Z,99599.09
2023-04-27T11:46:02.051Z,99604.09
2023-04-27T11:47:03.677Z,99599.00
2023-04-27T11:48:05.552Z,99599.34
2023-04-27T11:49:08.050Z,99597.94
2023-04-27T11:50:10.502Z,99597.94
2023-04-27T11:51:12.108Z,99603.50
2023-04-27T11:52:14.464Z,99592.19
2023-04-27T11:53:18.683Z,99594.16
2023-04-27T11:54:28.773Z,99593.25
2023-04-27T11:55:30.340Z,99599.53
2023-04-27T11:56:39.764Z,99593.25
2023-04-27T11:57:44.168Z,99597.94
2023-04-27T11:58:46.466Z,99598.50
2023-04-27T11:59:48.180Z,99601.28
2023-04-27T12:00:49.729Z,99597.94
2023-04-27T12:01:51.563Z,99593.81
2023-04-27T12:02:53.360Z,99594.28
2023-04-27T12:03:55.424Z,99593.91
2023-04-27T12:04:59.290Z,99593.47
2023-04-27T12:06:16.198Z,99595.28
2023-04-27T12:07:22.865Z,99590.84
2023-04-27T12:08:24.677Z,99597.06
2023-04-27T12:09:26.209Z,99590.44
2023-04-27T12:10:27.824Z,99593.28
2023-04-27T12:11:29.409Z,99592.94
2023-04-27T12:12:30.960Z,99585.47
2023-04-27T12:13:32.508Z,99580.19
2023-04-27T12:14:34.401Z,99578.16
2023-04-27T12:15:35.980Z,99587.16
2023-04-27T12:16:37.625Z,99584.94
2023-04-27T12:17:39.828Z,99584.41
2023-04-27T12:18:41.384Z,99586.44
2023-04-27T12:19:42.956Z,99593.47
2023-04-27T12:20:44.529Z,99582.88